createdAt,value
2017-09-20T00:00:05.539Z,12.77
2017-09-20T00:02:35.159Z,11.18
2017-09-20T00:05:04.776Z,14.07
2017-09-20T00:07:33.629Z,11.52
2017-09-20T00:10:02.496Z,11.57
2017-09-20T00:12:31.352Z,12.32
2017-09-20T00:15:00.240Z,10.23
2017-09-20T00:17:29.098Z,10.13
2017-09-20T00:19:57.947Z,10.10
2017-09-20T00:22:26.784Z,9.00
2017-09-20T00:24:55.628Z,15.38
2017-09-20T00:27:24.481Z,13.07
2017-09-20T00:29:54.095Z,7.82
2017-09-20T00:32:23.070Z,10.85
2017-09-20T00:34:51.908Z,9.85
2017-09-20T00:37:20.763Z,11.68
2017-09-20T00:39:49.613Z,9.73
2017-09-20T00:42:19.229Z,10.70
2017-09-20T00:44:48.071Z,10.30
2017-09-20T00:47:16.924Z,13.43
2017-09-20T00:49:45.760Z,9.57
2017-09-20T00:52:14.617Z,10.10
2017-09-20T00:54:44.255Z,10.27
2017-09-20T00:57:12.411Z,11.27
2017-09-20T00:59:41.336Z,9.50
2017-09-20T01:02:10.209Z,11.52
2017-09-20T01:04:39.063Z,9.80
2017-09-20T01:07:07.920Z,15.15
2017-09-20T01:09:36.779Z,9.88
2017-09-20T01:12:05.633Z,11.10
2017-09-20T01:14:34.503Z,10.85
2017-09-20T01:17:03.023Z,12.23
2017-09-20T01:19:32.655Z,11.25
2017-09-20T01:22:12.639Z,10.20
2017-09-20T01:24:41.256Z,8.63
2017-09-20T01:27:09.819Z,9.20
2017-09-20T01:29:38.676Z,10.35
2017-09-20T01:32:07.540Z,11.43
2017-09-20T01:34:37.149Z,9.82
2017-09-20T01:37:06.757Z,8.52
2017-09-20T01:39:36.385Z,11.18
2017-09-20T01:42:05.240Z,10.70
2017-09-20T01:44:34.102Z,10.32
2017-09-20T01:47:02.957Z,11.32
2017-09-20T01:49:31.806Z,12.32
2017-09-20T01:52:01.323Z,10.82
2017-09-20T01:54:30.494Z,13.10
2017-09-20T01:56:59.347Z,10.88
2017-09-20T01:59:28.206Z,11.55
2017-09-20T02:01:57.856Z,11.05
2017-09-20T02:04:26.716Z,12.32
2017-09-20T02:06:56.347Z,12.82
2017-09-20T02:09:27.049Z,11.75
2017-09-20T02:11:55.909Z,10.13
2017-09-20T02:14:24.793Z,10.45
2017-09-20T02:16:53.645Z,9.02
2017-09-20T02:19:22.505Z,13.60
2017-09-20T02:21:51.372Z,12.98
2017-09-20T02:24:20.237Z,10.75
2017-09-20T02:26:49.094Z,10.40
2017-09-20T02:29:18.733Z,10.30
2017-09-20T02:31:47.600Z,12.30
2017-09-20T02:34:17.223Z,13.38
2017-09-20T02:36:46.099Z,11.12
2017-09-20T02:39:15.720Z,9.13
2017-09-20T02:41:44.925Z,13.57
2017-09-20T02:44:13.783Z,11.75
2017-09-20T02:46:42.641Z,10.25
2017-09-20T02:49:11.313Z,9.93
2017-09-20T02:51:40.164Z,11.93
2017-09-20T02:54:08.999Z,8.93
2017-09-20T02:56:38.043Z,10.30
2017-09-20T02:59:07.328Z,11.30
2017-09-20T03:01:35.840Z,13.15
2017-09-20T03:04:05.460Z,16.50
2017-09-20T03:06:34.321Z,12.82
2017-09-20T03:09:03.408Z,10.90
2017-09-20T03:11:32.260Z,9.07
2017-09-20T03:14:01.122Z,10.18
2017-09-20T03:16:30.753Z,8.80
2017-09-20T03:19:00.407Z,9.75
2017-09-20T03:21:30.219Z,10.00
2017-09-20T03:23:58.809Z,9.35
2017-09-20T03:26:27.667Z,12.68
2017-09-20T03:28:56.528Z,12.00
2017-09-20T03:31:25.378Z,11.77
2017-09-20T03:33:54.252Z,9.80
2017-09-20T03:36:23.117Z,10.15
2017-09-20T03:38:51.980Z,11.10
2017-09-20T03:41:21.609Z,11.55
2017-09-20T03:43:50.480Z,10.30
2017-09-20T03:46:20.101Z,10.70
2017-09-20T03:48:49.713Z,8.38
2017-09-20T03:51:18.577Z,13.18
2017-09-20T03:53:48.221Z,11.45
2017-09-20T03:56:17.089Z,14.60
2017-09-20T03:58:45.951Z,13.27
2017-09-20T04:01:14.803Z,11.10
2017-09-20T04:03:43.663Z,11.48
2017-09-20T04:06:12.525Z,11.70
2017-09-20T04:08:41.391Z,12.85
2017-09-20T04:11:10.236Z,10.35
2017-09-20T04:13:39.100Z,13.77
2017-09-20T04:16:07.961Z,11.12
2017-09-20T04:18:36.833Z,15.75
2017-09-20T04:21:05.688Z,11.43
2017-09-20T04:23:35.284Z,11.80
2017-09-20T04:26:04.138Z,10.93
2017-09-20T04:28:32.998Z,14.30
2017-09-20T04:31:01.869Z,10.35
2017-09-20T04:33:31.493Z,10.55
2017-09-20T04:36:00.347Z,11.80
2017-09-20T04:38:29.218Z,10.75
2017-09-20T04:40:58.940Z,11.70
2017-09-20T04:43:28.755Z,10.82
2017-09-20T04:45:57.620Z,15.65
2017-09-20T04:48:26.504Z,13.00
2017-09-20T04:50:55.368Z,14.20
2017-09-20T04:53:24.248Z,12.45
2017-09-20T04:55:53.878Z,13.95
2017-09-20T04:58:22.738Z,14.57
2017-09-20T05:00:52.370Z,13.35
2017-09-20T05:03:21.232Z,16.70
2017-09-20T05:05:50.100Z,17.48
2017-09-20T05:08:18.970Z,16.20
2017-09-20T05:10:47.832Z,14.85
2017-09-20T05:13:16.687Z,16.62
2017-09-20T05:15:45.556Z,19.80
2017-09-20T05:18:14.520Z,16.90
2017-09-20T05:20:43.392Z,14.60
2017-09-20T05:23:13.017Z,15.70
2017-09-20T05:25:41.881Z,17.83
2017-09-20T05:28:11.508Z,19.20
2017-09-20T05:30:40.178Z,20.23
2017-09-20T05:33:09.631Z,15.77
2017-09-20T05:35:38.866Z,16.77
2017-09-20T05:38:07.719Z,17.75
2017-09-20T05:40:36.585Z,14.10
2017-09-20T05:43:05.463Z,14.00
2017-09-20T05:45:35.106Z,18.10
2017-09-20T05:48:04.940Z,25.58
2017-09-20T05:50:33.800Z,17.12
2017-09-20T05:53:02.688Z,24.45
2017-09-20T05:55:31.563Z,15.95
2017-09-20T05:58:01.182Z,26.45
2017-09-20T06:00:30.817Z,20.92
2017-09-20T06:03:00.555Z,21.73
2017-09-20T06:05:29.419Z,22.92
2017-09-20T06:07:58.289Z,19.60
2017-09-20T06:10:27.676Z,20.62
2017-09-20T06:12:57.994Z,21.87
2017-09-20T06:15:27.628Z,19.85
2017-09-20T06:17:56.496Z,21.80
2017-09-20T06:20:26.111Z,20.88
2017-09-20T06:22:57.049Z,19.55
2017-09-20T06:25:25.911Z,22.20
2017-09-20T06:27:55.093Z,20.83
2017-09-20T06:30:23.958Z,19.90
2017-09-20T06:32:52.825Z,28.17
2017-09-20T06:35:22.459Z,21.15
2017-09-20T06:37:51.339Z,23.67
2017-09-20T06:40:20.241Z,20.20
2017-09-20T06:42:49.105Z,19.80
2017-09-20T06:45:18.732Z,20.88
2017-09-20T06:47:48.916Z,28.48
2017-09-20T06:50:18.562Z,29.63
2017-09-20T06:52:48.135Z,27.70
2017-09-20T06:55:17.237Z,22.80
2017-09-20T06:57:46.105Z,26.20
2017-09-20T07:00:15.992Z,22.40
2017-09-20T07:05:18.262Z,26.05
2017-09-20T07:07:48.940Z,25.33
2017-09-20T07:10:17.809Z,26.85
2017-09-20T07:12:46.825Z,26.83
2017-09-20T07:15:15.683Z,36.55
2017-09-20T07:17:44.547Z,34.60
2017-09-20T07:20:14.171Z,31.12
2017-09-20T07:22:43.036Z,28.40
2017-09-20T07:25:13.827Z,32.33
2017-09-20T07:27:42.704Z,25.65
2017-09-20T07:30:12.390Z,36.53
2017-09-20T07:32:47.985Z,30.35
2017-09-20T07:35:16.855Z,29.58
2017-09-20T08:24:30.509Z,44.22
2017-09-20T08:26:59.369Z,37.92
2017-09-20T08:29:28.238Z,41.55
2017-09-20T08:31:57.110Z,40.20
2017-09-20T08:34:25.781Z,39.97
2017-09-20T08:36:54.715Z,39.25
2017-09-20T08:39:23.388Z,43.55
2017-09-20T08:41:52.298Z,41.72
2017-09-20T08:44:21.157Z,40.65
2017-09-20T08:46:50.029Z,38.97
2017-09-20T08:49:19.858Z,43.75
2017-09-20T08:51:48.727Z,42.42
2017-09-20T08:54:17.583Z,39.72
2017-09-20T08:56:46.484Z,41.55
2017-09-20T08:59:17.142Z,42.15
2017-09-20T09:01:46.029Z,32.88
2017-09-20T09:04:14.888Z,41.85
2017-09-20T09:06:44.585Z,32.75
2017-09-20T09:09:13.431Z,35.15
2017-09-20T09:11:42.315Z,37.65
2017-09-20T09:14:11.208Z,31.05
2017-09-20T09:16:40.954Z,36.38
2017-09-20T09:19:09.846Z,36.60
2017-09-20T09:21:38.722Z,38.40
2017-09-20T09:24:07.709Z,31.83
2017-09-20T09:26:36.969Z,33.10
2017-09-20T09:29:05.846Z,37.83
2017-09-20T09:31:35.485Z,40.83
2017-09-20T09:34:04.360Z,32.40
2017-09-20T09:36:33.861Z,38.58
2017-09-20T09:39:02.756Z,32.80
2017-09-20T09:41:32.426Z,30.27
2017-09-20T09:44:06.199Z,31.92
2017-09-20T09:46:35.082Z,30.45
2017-09-20T09:49:03.969Z,33.72
2017-09-20T09:51:32.868Z,32.60
2017-09-20T09:54:01.758Z,34.97
2017-09-20T09:56:33.888Z,34.22
2017-09-20T10:01:38.498Z,31.90
2017-09-20T10:04:10.680Z,30.05
2017-09-20T10:06:44.704Z,32.70
2017-09-20T10:11:53.460Z,34.42
2017-09-20T10:14:23.186Z,30.52
2017-09-20T10:16:53.203Z,29.08
2017-09-20T10:19:22.834Z,26.15
2017-09-20T10:21:51.705Z,29.52
2017-09-20T10:24:22.364Z,29.77
2017-09-20T10:26:51.816Z,33.97
2017-09-20T10:29:20.751Z,28.60
2017-09-20T10:31:49.617Z,30.10
2017-09-20T10:34:20.428Z,32.60
2017-09-20T10:36:49.305Z,28.02
2017-09-20T10:39:18.944Z,29.87
2017-09-20T10:41:48.469Z,25.00
2017-09-20T10:44:18.100Z,21.42
2017-09-20T10:46:46.973Z,31.50
2017-09-20T10:49:16.636Z,19.00
2017-09-20T10:51:45.337Z,18.48
2017-09-20T10:54:15.895Z,18.62
2017-09-20T10:56:44.780Z,19.08
2017-09-20T10:59:14.121Z,12.45
2017-09-20T11:01:42.980Z,18.70
2017-09-20T11:04:12.612Z,13.88
2017-09-20T11:06:41.827Z,12.73
2017-09-20T11:09:12.188Z,13.20
2017-09-20T11:11:41.049Z,15.00
2017-09-20T11:14:09.900Z,14.82
2017-09-20T11:16:40.569Z,11.27
2017-09-20T11:19:09.585Z,11.77
2017-09-20T11:21:39.027Z,13.50
2017-09-20T11:24:10.672Z,11.30
2017-09-20T11:26:39.570Z,14.18
2017-09-20T11:29:08.423Z,11.68
2017-09-20T11:31:37.297Z,14.13
2017-09-20T11:34:06.152Z,16.27
2017-09-20T11:36:35.000Z,10.80
2017-09-20T11:39:04.478Z,9.60
2017-09-20T11:41:33.366Z,10.10
2017-09-20T11:44:14.620Z,12.85
2017-09-20T11:46:43.873Z,11.12
2017-09-20T11:49:13.423Z,10.30
2017-09-20T11:51:43.059Z,11.50
2017-09-20T11:54:11.919Z,13.90
2017-09-20T11:56:40.803Z,10.60
2017-09-20T11:59:10.498Z,6.82
2017-09-20T12:01:39.343Z,8.82
2017-09-20T12:04:08.196Z,10.52
2017-09-20T12:06:37.053Z,7.40
2017-09-20T12:09:05.556Z,5.75
2017-09-20T12:11:34.410Z,7.30
2017-09-20T12:14:03.290Z,7.65
2017-09-20T12:16:33.761Z,7.87
2017-09-20T12:19:02.632Z,13.93
2017-09-20T12:21:31.951Z,6.53
2017-09-20T12:24:00.915Z,11.27
2017-09-20T12:26:29.768Z,12.50
2017-09-20T12:28:58.667Z,6.78
2017-09-20T12:31:28.287Z,11.77
2017-09-20T12:33:58.564Z,11.68
2017-09-20T12:36:27.429Z,9.75
2017-09-20T12:38:56.312Z,7.93
2017-09-20T12:41:25.177Z,9.18
2017-09-20T12:43:55.581Z,10.40
2017-09-20T12:46:24.521Z,8.45
2017-09-20T12:48:53.373Z,8.23
2017-09-20T12:51:22.305Z,8.40
2017-09-20T12:53:51.194Z,7.12
2017-09-20T12:56:20.059Z,11.05
2017-09-20T12:58:50.737Z,11.25
2017-09-20T13:01:19.595Z,7.57
2017-09-20T13:03:49.066Z,7.70
2017-09-20T13:08:53.174Z,9.82
2017-09-20T13:11:23.903Z,6.00
2017-09-20T13:13:54.923Z,8.80
2017-09-20T13:16:23.895Z,4.85
2017-09-20T13:18:52.771Z,7.40
2017-09-20T13:21:21.627Z,9.40
2017-09-20T13:23:50.493Z,5.85
2017-09-20T13:26:20.375Z,4.57
2017-09-20T13:28:53.648Z,5.95
2017-09-20T13:31:26.289Z,5.95
2017-09-20T13:33:55.146Z,7.78
2017-09-20T13:36:25.088Z,5.22
2017-09-20T13:38:55.600Z,4.20
2017-09-20T13:41:26.096Z,8.05
2017-09-20T13:43:54.936Z,4.60
2017-09-20T13:46:23.885Z,6.32
2017-09-20T13:48:54.434Z,6.05
2017-09-20T13:51:25.127Z,7.00
2017-09-20T13:54:33.966Z,6.95
2017-09-20T13:57:07.071Z,5.47
2017-09-20T13:59:36.704Z,2.40
2017-09-20T14:04:40.363Z,5.60
2017-09-20T14:07:09.590Z,4.00
2017-09-20T14:09:39.100Z,4.72
2017-09-20T14:12:07.979Z,3.47
2017-09-20T14:14:36.821Z,7.07
2017-09-20T14:17:05.563Z,2.78
2017-09-20T14:19:34.905Z,4.65
2017-09-20T14:22:05.202Z,6.80
2017-09-20T14:24:34.889Z,3.33
2017-09-20T14:27:03.766Z,3.53
2017-09-20T14:29:32.629Z,2.30
2017-09-20T14:32:06.436Z,4.95
2017-09-20T14:34:35.326Z,1.90
2017-09-20T14:37:05.922Z,3.00
2017-09-20T14:39:34.807Z,1.85
2017-09-20T14:42:04.648Z,3.65
2017-09-20T14:44:34.318Z,2.90
2017-09-20T14:47:03.168Z,2.25
2017-09-20T14:49:32.804Z,3.17
2017-09-20T14:52:01.655Z,2.00
2017-09-20T14:54:30.515Z,2.60
2017-09-20T14:56:59.360Z,1.73
2017-09-20T14:59:29.109Z,3.08
2017-09-20T15:01:57.953Z,1.80
2017-09-20T15:04:26.808Z,3.87
2017-09-20T15:06:55.689Z,4.35
2017-09-20T15:09:24.565Z,3.28
2017-09-20T15:11:54.205Z,3.47
2017-09-20T15:14:23.048Z,7.78
2017-09-20T15:16:51.896Z,5.15
2017-09-20T15:19:20.773Z,8.02
2017-09-20T15:21:49.627Z,3.58
2017-09-20T15:24:18.471Z,2.58
2017-09-20T15:26:48.003Z,2.60
2017-09-20T15:29:16.894Z,3.58
2017-09-20T15:31:45.756Z,2.00
2017-09-20T15:34:14.616Z,1.92
2017-09-20T15:36:43.480Z,4.70
2017-09-20T15:39:12.328Z,6.05
2017-09-20T15:41:41.723Z,1.60
2017-09-20T15:44:10.580Z,6.45
2017-09-20T15:46:39.434Z,3.35
2017-09-20T15:49:09.927Z,2.70
2017-09-20T15:51:39.959Z,3.20
2017-09-20T15:54:08.804Z,1.98
2017-09-20T15:56:37.683Z,2.20
2017-09-20T15:59:15.988Z,3.15
2017-09-20T16:01:45.871Z,7.12
2017-09-20T16:04:14.721Z,2.30
2017-09-20T16:06:43.956Z,4.20
2017-09-20T16:09:12.799Z,3.87
2017-09-20T16:11:43.305Z,4.15
2017-09-20T16:14:13.081Z,4.05
2017-09-20T16:16:41.661Z,5.18
2017-09-20T16:19:10.508Z,4.53
2017-09-20T16:21:39.396Z,4.37
2017-09-20T16:24:08.237Z,7.97
2017-09-20T16:26:37.076Z,4.50
2017-09-20T16:29:06.168Z,6.85
2017-09-20T16:31:36.063Z,4.05
2017-09-20T16:34:05.681Z,5.35
2017-09-20T16:36:34.532Z,3.97
2017-09-20T16:39:03.197Z,3.55
2017-09-20T16:41:32.118Z,6.15
2017-09-20T16:44:00.971Z,2.17
2017-09-20T16:46:29.813Z,3.65
2017-09-20T16:48:58.653Z,2.70
2017-09-20T16:51:28.873Z,3.83
2017-09-20T16:53:58.077Z,4.80
2017-09-20T16:56:26.577Z,5.37
2017-09-20T16:58:56.098Z,4.55
2017-09-20T17:01:24.256Z,3.03
2017-09-20T17:03:53.111Z,4.87
2017-09-20T17:06:21.966Z,2.50
2017-09-20T17:08:50.817Z,3.33
2017-09-20T17:11:19.708Z,3.03
2017-09-20T17:13:49.331Z,5.05
2017-09-20T17:16:18.180Z,5.50
2017-09-20T17:18:48.011Z,5.40
2017-09-20T17:21:16.864Z,4.03
2017-09-20T17:23:46.484Z,4.68
2017-09-20T17:26:17.332Z,4.07
2017-09-20T17:28:46.194Z,3.50
2017-09-20T17:31:16.548Z,5.50
2017-09-20T17:33:45.397Z,6.25
2017-09-20T17:36:14.252Z,4.80
2017-09-20T17:38:43.099Z,11.70
2017-09-20T17:41:11.933Z,5.50
2017-09-20T17:43:41.320Z,5.03
2017-09-20T17:46:10.630Z,6.72
2017-09-20T17:48:39.472Z,6.20
2017-09-20T17:51:08.405Z,8.65
2017-09-20T17:53:37.248Z,5.65
2017-09-20T17:56:06.088Z,5.82
2017-09-20T17:58:34.924Z,5.53
2017-09-20T18:01:03.795Z,6.40
2017-09-20T18:03:32.641Z,7.25
2017-09-20T18:06:02.248Z,10.30
2017-09-20T18:08:32.793Z,5.90
2017-09-20T18:11:02.468Z,7.87
2017-09-20T18:13:31.623Z,4.35
2017-09-20T18:16:01.499Z,5.22
2017-09-20T18:18:30.836Z,4.80
2017-09-20T18:20:59.671Z,4.93
2017-09-20T18:23:28.323Z,9.23
2017-09-20T18:25:57.198Z,4.87
2017-09-20T18:28:26.052Z,7.15
2017-09-20T18:30:54.896Z,8.73
2017-09-20T18:33:23.769Z,11.30
2017-09-20T18:35:52.816Z,5.30
2017-09-20T18:38:21.655Z,10.93
2017-09-20T18:40:50.496Z,4.97
2017-09-20T18:43:19.151Z,8.55
2017-09-20T18:45:48.004Z,6.95
2017-09-20T18:48:17.519Z,8.48
2017-09-20T18:50:46.387Z,9.43
2017-09-20T18:53:15.996Z,6.57
2017-09-20T18:55:44.836Z,6.37
2017-09-20T18:58:13.688Z,7.47
2017-09-20T19:00:56.651Z,6.68
2017-09-20T19:03:27.605Z,11.32
2017-09-20T19:05:57.373Z,8.80
2017-09-20T19:08:27.626Z,6.60
2017-09-20T19:10:56.510Z,11.27
2017-09-20T19:13:25.807Z,4.10
2017-09-20T19:15:54.668Z,4.55
2017-09-20T19:18:24.311Z,10.73
2017-09-20T19:20:53.157Z,8.75
2017-09-20T19:23:23.951Z,7.00
2017-09-20T19:25:54.264Z,7.30
2017-09-20T19:28:24.803Z,6.47
2017-09-20T19:30:53.471Z,10.43
2017-09-20T19:33:23.630Z,7.40
2017-09-20T19:35:55.935Z,11.57
2017-09-20T19:38:26.880Z,7.95
2017-09-20T19:40:56.310Z,7.12
2017-09-20T19:43:25.164Z,7.00
2017-09-20T19:45:54.154Z,8.23
2017-09-20T19:48:23.027Z,7.40
2017-09-20T19:53:25.841Z,7.55
2017-09-20T19:55:54.868Z,8.20
2017-09-20T19:58:23.716Z,8.65
2017-09-20T20:00:52.567Z,7.90
2017-09-20T20:03:21.236Z,9.93
2017-09-20T20:05:50.100Z,10.55
2017-09-20T20:08:19.733Z,13.00
2017-09-20T20:10:51.293Z,13.98
2017-09-20T20:13:20.139Z,7.55
2017-09-20T20:15:49.005Z,13.18
2017-09-20T20:18:17.902Z,10.90
2017-09-20T20:20:46.761Z,11.23
2017-09-20T20:23:16.885Z,12.30
2017-09-20T20:25:45.748Z,13.38
2017-09-20T20:28:16.431Z,8.02
2017-09-20T20:30:45.274Z,8.43
2017-09-20T20:33:14.892Z,9.52
2017-09-20T20:35:44.552Z,8.50
2017-09-20T20:38:13.469Z,10.90
2017-09-20T20:40:42.337Z,11.50
2017-09-20T20:43:11.180Z,9.65
2017-09-20T20:45:40.031Z,9.93
2017-09-20T20:48:08.585Z,12.68
2017-09-20T20:50:37.756Z,12.80
2017-09-20T20:53:09.103Z,8.65
2017-09-20T20:55:37.973Z,11.35
2017-09-20T20:58:07.603Z,11.60
2017-09-20T21:00:36.467Z,10.23
2017-09-20T21:03:06.515Z,16.35
2017-09-20T21:05:35.808Z,9.90
2017-09-20T21:08:05.495Z,11.75
2017-09-20T21:10:35.122Z,11.38
2017-09-20T21:13:04.759Z,9.38
2017-09-20T21:15:33.445Z,10.02
2017-09-20T21:18:02.125Z,12.20
2017-09-20T21:20:31.010Z,9.00
2017-09-20T21:22:59.871Z,11.90
2017-09-20T21:25:29.491Z,9.23
2017-09-20T21:27:59.235Z,11.68
2017-09-20T21:30:28.087Z,11.15
2017-09-20T21:32:57.708Z,12.00
2017-09-20T21:35:28.295Z,10.90
2017-09-20T21:38:07.180Z,9.43
2017-09-20T21:40:36.029Z,8.70
2017-09-20T21:43:05.139Z,10.65
2017-09-20T21:45:34.762Z,12.88
2017-09-20T21:48:04.374Z,9.07
2017-09-20T21:50:33.993Z,11.45
2017-09-20T21:53:02.892Z,9.25
2017-09-20T21:55:33.787Z,11.73
2017-09-20T21:58:02.632Z,9.75
2017-09-20T22:00:35.293Z,8.13
2017-09-20T22:03:04.116Z,9.23
2017-09-20T22:05:32.970Z,9.82
2017-09-20T22:08:02.824Z,7.00
2017-09-20T22:10:31.685Z,10.82
2017-09-20T22:13:00.540Z,12.05
2017-09-20T22:15:40.593Z,9.23
2017-09-20T22:18:21.675Z,9.90
2017-09-20T22:21:01.787Z,8.07
2017-09-20T22:23:41.883Z,11.00
2017-09-20T22:26:22.020Z,9.63
2017-09-20T22:28:50.675Z,8.82
2017-09-20T22:31:19.639Z,9.55
2017-09-20T22:33:48.514Z,11.65
2017-09-20T22:36:18.492Z,9.85
2017-09-20T22:38:48.445Z,10.43
2017-09-20T22:41:17.770Z,17.20
2017-09-20T22:43:46.615Z,9.38
2017-09-20T22:46:15.510Z,12.05
2017-09-20T22:48:46.372Z,10.13
2017-09-20T22:51:15.526Z,11.90
2017-09-20T22:53:44.371Z,9.93
2017-09-20T22:56:13.233Z,10.88
2017-09-20T22:58:42.109Z,11.68
2017-09-20T23:01:10.964Z,12.80
2017-09-20T23:03:39.820Z,10.20
2017-09-20T23:06:09.431Z,8.82
2017-09-20T23:08:39.756Z,9.45
2017-09-20T23:11:09.364Z,8.07
2017-09-20T23:13:38.217Z,9.23
2017-09-20T23:16:07.741Z,12.37
2017-09-20T23:18:36.579Z,9.40
2017-09-20T23:21:05.428Z,8.75
2017-09-20T23:23:34.271Z,9.43
2017-09-20T23:26:03.138Z,11.40
2017-09-20T23:28:32.564Z,8.55
2017-09-20T23:31:01.412Z,10.27
2017-09-20T23:33:31.051Z,12.15
2017-09-20T23:35:59.909Z,11.82
2017-09-20T23:38:28.775Z,9.70
2017-09-20T23:40:57.656Z,10.38
2017-09-20T23:43:26.616Z,11.43
2017-09-20T23:45:55.475Z,10.50
2017-09-20T23:48:24.341Z,10.75
2017-09-20T23:50:53.203Z,11.48
2017-09-20T23:53:22.050Z,9.45
2017-09-20T23:55:52.647Z,14.40
2017-09-20T23:58:21.515Z,11.65
